createdAt,value
2023-04-22T00:00:32.004Z,13.60
2023-04-22T00:03:16.312Z,9.00
2023-04-22T00:05:45.042Z,7.60
2023-04-22T00:08:12.265Z,7.30
2023-04-22T00:10:39.451Z,7.70
2023-04-22T00:13:06.511Z,9.80
2023-04-22T00:15:33.586Z,9.30
2023-04-22T00:18:00.749Z,9.70
2023-04-22T00:20:27.898Z,9.20
2023-04-22T00:22:55.071Z,10.40
2023-04-22T00:25:22.212Z,9.70
2023-04-22T00:27:49.316Z,12.80
2023-04-22T00:30:16.504Z,23.60
2023-04-22T00:32:43.659Z,38.80
2023-04-22T00:35:11.073Z,49.80
2023-04-22T00:37:38.727Z,44.40
2023-04-22T00:40:07.004Z,42.70
2023-04-22T00:42:34.524Z,39.50
2023-04-22T00:45:02.367Z,38.70
2023-04-22T00:47:30.590Z,34.70
2023-04-22T00:49:59.890Z,33.80
2023-04-22T00:52:27.016Z,35.80
2023-04-22T00:54:54.605Z,38.20
2023-04-22T00:57:21.849Z,39.20
2023-04-22T00:59:50.038Z,37.00
2023-04-22T01:02:17.369Z,36.10
2023-04-22T01:04:44.836Z,35.00
2023-04-22T01:07:12.065Z,38.00
2023-04-22T01:09:40.247Z,40.50
2023-04-22T01:12:08.224Z,40.80
2023-04-22T01:14:35.340Z,39.70
2023-04-22T01:17:03.273Z,41.20
2023-04-22T01:19:30.729Z,41.50
2023-04-22T01:21:59.458Z,43.40
2023-04-22T01:24:27.097Z,39.90
2023-04-22T01:26:54.501Z,38.20
2023-04-22T01:29:21.855Z,40.40
2023-04-22T01:31:49.626Z,38.70
2023-04-22T01:34:17.023Z,37.30
2023-04-22T01:36:44.806Z,37.00
2023-04-22T01:39:12.028Z,33.30
2023-04-22T01:41:39.555Z,30.70
2023-04-22T01:44:06.757Z,31.00
2023-04-22T01:46:34.690Z,29.30
2023-04-22T01:49:01.816Z,29.70
2023-04-22T01:51:29.045Z,31.60
2023-04-22T01:53:56.628Z,27.70
2023-04-22T01:56:24.338Z,24.90
2023-04-22T01:58:51.528Z,27.30
2023-04-22T02:01:18.673Z,32.30
2023-04-22T02:03:46.072Z,34.30
2023-04-22T02:06:13.874Z,31.90
2023-04-22T02:08:40.994Z,33.40
2023-04-22T02:11:08.205Z,33.30
2023-04-22T02:13:38.969Z,35.40
2023-04-22T02:16:06.590Z,32.90
2023-04-22T02:18:34.284Z,34.80
2023-04-22T02:21:01.482Z,34.80
2023-04-22T02:23:29.218Z,37.40
2023-04-22T02:25:56.371Z,38.20
2023-04-22T02:28:23.595Z,39.90
2023-04-22T02:30:50.704Z,48.00
2023-04-22T02:33:18.355Z,40.70
2023-04-22T02:35:45.714Z,39.60
2023-04-22T02:38:16.848Z,24.00
2023-04-22T02:40:44.080Z,16.70
2023-04-22T02:43:12.289Z,14.70
2023-04-22T02:45:40.974Z,13.40
2023-04-22T02:48:08.693Z,11.10
2023-04-22T02:50:36.375Z,15.10
2023-04-22T02:53:03.539Z,14.60
2023-04-22T02:55:30.764Z,12.80
2023-04-22T02:57:57.970Z,11.40
2023-04-22T03:00:25.168Z,10.10
2023-04-22T03:02:52.630Z,10.00
2023-04-22T03:05:23.841Z,9.60
2023-04-22T03:07:51.310Z,9.30
2023-04-22T03:10:19.619Z,10.20
2023-04-22T03:12:46.706Z,11.00
2023-04-22T03:15:14.175Z,12.60
2023-04-22T03:17:41.412Z,11.90
2023-04-22T03:20:11.813Z,12.80
2023-04-22T03:22:39.020Z,14.70
2023-04-22T03:25:08.725Z,21.90
2023-04-22T03:27:35.857Z,14.90
2023-04-22T03:30:04.127Z,11.90
2023-04-22T03:32:31.515Z,12.60
2023-04-22T03:35:14.644Z,11.10
2023-04-22T03:37:42.363Z,11.40
2023-04-22T03:40:13.500Z,10.00
2023-04-22T03:42:41.082Z,9.80
2023-04-22T03:45:08.975Z,10.10
2023-04-22T03:47:38.810Z,9.50
2023-04-22T03:50:13.463Z,11.40
2023-04-22T03:52:40.815Z,11.20
2023-04-22T03:55:08.475Z,11.00
2023-04-22T03:57:35.933Z,10.50
2023-04-22T04:00:03.451Z,9.60
2023-04-22T04:02:42.091Z,11.20
2023-04-22T04:05:11.480Z,11.80
2023-04-22T04:07:39.394Z,13.60
2023-04-22T04:10:07.975Z,14.10
2023-04-22T04:12:35.126Z,13.50
2023-04-22T04:15:02.581Z,10.80
2023-04-22T04:17:30.626Z,9.60
2023-04-22T04:19:58.327Z,10.00
2023-04-22T04:22:28.015Z,10.10
2023-04-22T04:24:57.441Z,9.60
2023-04-22T04:27:28.155Z,8.60
2023-04-22T04:29:56.072Z,7.70
2023-04-22T04:32:34.515Z,8.10
2023-04-22T04:35:03.268Z,7.30
2023-04-22T04:37:30.602Z,8.10
2023-04-22T04:40:01.808Z,9.10
2023-04-22T04:42:38.851Z,10.30
2023-04-22T04:45:10.246Z,9.40
2023-04-22T04:47:37.408Z,8.80
2023-04-22T04:50:13.082Z,10.00
2023-04-22T04:52:40.944Z,9.20
2023-04-22T04:55:08.521Z,9.90
2023-04-22T04:57:38.273Z,11.30
2023-04-22T05:00:07.218Z,9.20
2023-04-22T05:02:34.364Z,9.20
2023-04-22T05:05:01.757Z,9.80
2023-04-22T05:07:29.622Z,9.40
2023-04-22T05:09:57.244Z,9.20
2023-04-22T05:12:24.722Z,9.70
2023-04-22T05:14:51.960Z,10.80
2023-04-22T05:17:19.580Z,9.90
2023-04-22T05:19:46.749Z,9.00
2023-04-22T05:22:14.348Z,9.80
2023-04-22T05:24:41.648Z,9.20
2023-04-22T05:27:09.364Z,9.40
2023-04-22T05:29:36.919Z,8.10
2023-04-22T05:32:05.200Z,8.40
2023-04-22T05:34:32.649Z,8.40
2023-04-22T05:36:59.916Z,8.50
2023-04-22T05:39:27.513Z,8.00
2023-04-22T05:41:56.005Z,7.10
2023-04-22T05:44:23.331Z,8.00
2023-04-22T05:46:50.704Z,6.60
2023-04-22T05:49:18.352Z,7.10
2023-04-22T05:52:03.786Z,6.50
2023-04-22T05:54:38.618Z,6.60
2023-04-22T05:57:05.844Z,6.20
2023-04-22T05:59:33.632Z,9.40
2023-04-22T06:02:00.958Z,7.70
2023-04-22T06:04:28.307Z,6.00
2023-04-22T06:06:56.519Z,5.00
2023-04-22T06:09:24.277Z,4.20
2023-04-22T06:11:51.422Z,4.70
2023-04-22T06:14:18.574Z,4.70
2023-04-22T06:16:46.352Z,4.00
2023-04-22T06:19:13.559Z,4.20
2023-04-22T06:21:42.245Z,3.90
2023-04-22T06:24:10.497Z,4.10
2023-04-22T06:26:38.088Z,4.90
2023-04-22T06:29:05.673Z,4.70
2023-04-22T06:31:33.269Z,4.90
2023-04-22T06:34:00.608Z,3.80
2023-04-22T06:36:30.394Z,4.20
2023-04-22T06:39:00.348Z,3.80
2023-04-22T06:41:44.353Z,3.80
2023-04-22T06:44:27.977Z,10.60
2023-04-22T06:47:13.748Z,7.00
2023-04-22T06:50:01.747Z,8.80
2023-04-22T06:52:34.656Z,12.10
2023-04-22T06:55:05.983Z,5.30
2023-04-22T06:57:33.168Z,4.80
2023-04-22T07:00:00.260Z,5.30
2023-04-22T07:02:27.745Z,28.80
2023-04-22T07:04:54.967Z,10.70
2023-04-22T07:07:22.130Z,5.30
2023-04-22T07:09:49.266Z,4.30
2023-04-22T07:12:16.437Z,4.80
2023-04-22T07:14:46.444Z,4.10
2023-04-22T07:17:13.605Z,13.60
2023-04-22T07:19:41.081Z,4.90
2023-04-22T07:22:08.797Z,4.00
2023-04-22T07:24:36.043Z,4.00
2023-04-22T07:27:03.332Z,3.70
2023-04-22T07:29:30.339Z,6.60
2023-04-22T07:31:57.900Z,4.40
2023-04-22T07:34:25.092Z,2.70
2023-04-22T07:36:52.444Z,2.70
2023-04-22T07:39:19.817Z,2.70
2023-04-22T07:41:46.917Z,3.10
2023-04-22T07:44:17.431Z,9.50
2023-04-22T07:46:44.603Z,6.40
2023-04-22T07:49:14.171Z,2.80
2023-04-22T07:51:41.542Z,2.80
2023-04-22T07:54:08.971Z,13.00
2023-04-22T07:56:36.026Z,7.50
2023-04-22T07:59:03.745Z,3.40
2023-04-22T08:01:30.985Z,4.50
2023-04-22T08:03:58.351Z,3.80
2023-04-22T08:06:25.830Z,2.20
2023-04-22T08:08:52.864Z,2.50
2023-04-22T08:11:19.965Z,4.00
2023-04-22T08:13:47.041Z,2.90
2023-04-22T08:16:14.219Z,2.80
2023-04-22T08:18:41.377Z,2.20
2023-04-22T08:21:08.411Z,2.50
2023-04-22T08:23:35.472Z,3.60
2023-04-22T08:26:03.919Z,1.90
2023-04-22T08:28:31.196Z,2.50
2023-04-22T08:30:58.258Z,3.30
2023-04-22T08:33:27.131Z,3.30
2023-04-22T08:35:54.622Z,1.50
2023-04-22T08:38:21.782Z,1.70
2023-04-22T08:40:49.130Z,1.50
2023-04-22T08:43:16.477Z,1.50
2023-04-22T08:45:45.362Z,11.80
2023-04-22T08:48:13.532Z,6.40
2023-04-22T08:50:41.496Z,2.20
2023-04-22T08:53:08.669Z,1.60
2023-04-22T08:55:36.563Z,2.80
2023-04-22T08:58:06.262Z,8.90
2023-04-22T09:00:34.782Z,3.20
2023-04-22T09:03:05.802Z,7.00
2023-04-22T09:05:34.507Z,6.10
2023-04-22T09:08:03.531Z,18.20
2023-04-22T09:10:32.991Z,6.20
2023-04-22T09:13:03.636Z,14.70
2023-04-22T09:15:31.081Z,5.80
2023-04-22T09:17:58.758Z,6.70
2023-04-22T09:20:27.899Z,2.80
2023-04-22T09:22:57.174Z,3.80
2023-04-22T09:25:27.030Z,40.10
2023-04-22T09:27:56.485Z,6.60
2023-04-22T09:30:36.682Z,1.80
2023-04-22T09:33:06.388Z,7.10
2023-04-22T09:35:36.491Z,1.80
2023-04-22T09:38:08.390Z,1.30
2023-04-22T09:40:37.059Z,1.40
2023-04-22T09:43:07.410Z,1.50
2023-04-22T09:45:36.823Z,2.10
2023-04-22T09:48:11.269Z,2.80
2023-04-22T09:50:40.565Z,7.00
2023-04-22T09:53:10.799Z,24.60
2023-04-22T09:55:51.934Z,4.20
2023-04-22T09:58:20.979Z,2.70
2023-04-22T10:00:57.245Z,6.90
2023-04-22T10:03:24.894Z,1.50
2023-04-22T10:05:52.418Z,1.60
2023-04-22T10:08:19.645Z,4.00
2023-04-22T10:10:47.024Z,3.50
2023-04-22T10:13:14.283Z,2.00
2023-04-22T10:16:00.961Z,1.70
2023-04-22T10:18:30.058Z,1.80
2023-04-22T10:20:59.155Z,1.00
2023-04-22T10:23:26.475Z,1.00
2023-04-22T10:25:55.017Z,1.70
2023-04-22T10:28:24.350Z,1.80
2023-04-22T10:30:51.460Z,0.80
2023-04-22T10:33:21.840Z,1.00
2023-04-22T10:36:14.392Z,1.90
2023-04-22T10:39:02.566Z,1.80
2023-04-22T10:41:31.624Z,1.60
2023-04-22T10:44:06.914Z,1.30
2023-04-22T10:46:35.045Z,1.70
2023-04-22T10:49:07.989Z,1.40
2023-04-22T10:51:56.131Z,1.70
2023-04-22T10:54:31.538Z,1.50
2023-04-22T10:57:06.885Z,19.40
2023-04-22T10:59:41.722Z,3.30
2023-04-22T11:02:12.171Z,2.40
2023-04-22T11:04:40.079Z,1.90
2023-04-22T11:07:32.037Z,1.70
2023-04-22T11:10:09.792Z,3.00
2023-04-22T11:12:39.789Z,1.70
2023-04-22T11:15:13.257Z,1.90
2023-04-22T11:17:43.943Z,3.30
2023-04-22T11:20:13.427Z,1.90
2023-04-22T11:22:43.790Z,1.70
2023-04-22T11:25:11.177Z,1.10
2023-04-22T11:27:43.760Z,1.20
2023-04-22T11:30:15.143Z,1.60
2023-04-22T11:32:43.409Z,1.50
2023-04-22T11:35:13.607Z,1.80
2023-04-22T11:37:47.774Z,1.90
2023-04-22T11:40:30.804Z,2.60
2023-04-22T11:43:00.945Z,1.50
2023-04-22T11:45:30.130Z,2.00
2023-04-22T11:47:57.418Z,1.90
2023-04-22T11:50:27.183Z,2.30
2023-04-22T11:53:01.341Z,2.10
2023-04-22T11:55:32.300Z,1.60
2023-04-22T11:58:08.552Z,2.80
2023-04-22T12:00:41.549Z,1.70
2023-04-22T12:03:15.598Z,2.20
2023-04-22T12:05:54.594Z,1.50
2023-04-22T12:08:30.385Z,1.40
2023-04-22T12:10:59.707Z,1.10
2023-04-22T12:13:34.239Z,1.10
2023-04-22T12:16:06.727Z,1.10
2023-04-22T12:18:36.283Z,0.90
2023-04-22T12:21:11.058Z,0.90
2023-04-22T12:23:46.369Z,0.80
2023-04-22T12:28:42.311Z,1.00
2023-04-22T12:31:09.993Z,1.40
2023-04-22T12:33:38.473Z,10.50
2023-04-22T12:36:06.593Z,1.60
2023-04-22T12:38:34.644Z,15.10
2023-04-22T12:41:02.655Z,3.30
2023-04-22T12:43:30.030Z,1.50
2023-04-22T12:45:57.160Z,3.60
2023-04-22T12:48:24.233Z,6.60
2023-04-22T12:50:51.397Z,2.50
2023-04-22T12:53:18.585Z,1.60
2023-04-22T12:55:46.182Z,2.90
2023-04-22T12:58:13.511Z,1.10
2023-04-22T13:00:41.036Z,1.30
2023-04-22T13:03:08.253Z,1.40
2023-04-22T13:05:35.747Z,1.40
2023-04-22T13:08:07.066Z,1.20
2023-04-22T13:10:36.186Z,6.30
2023-04-22T13:15:39.041Z,2.10
2023-04-22T13:18:06.521Z,1.40
2023-04-22T13:20:33.773Z,23.80
2023-04-22T13:23:02.242Z,3.00
2023-04-22T13:25:29.690Z,1.70
2023-04-22T13:27:56.839Z,2.20
2023-04-22T13:30:23.885Z,1.80
2023-04-22T13:32:52.043Z,2.50
2023-04-22T13:35:19.346Z,1.40
2023-04-22T13:37:47.189Z,4.40
2023-04-22T13:40:14.397Z,2.20
2023-04-22T13:42:42.085Z,2.70
2023-04-22T13:45:09.896Z,1.80
2023-04-22T13:47:36.988Z,1.30
2023-04-22T13:50:06.098Z,2.10
2023-04-22T13:52:34.069Z,1.60
2023-04-22T13:55:03.199Z,1.20
2023-04-22T13:57:30.669Z,1.50
2023-04-22T13:59:57.820Z,1.70
2023-04-22T14:02:25.057Z,1.90
2023-04-22T14:04:52.383Z,1.20
2023-04-22T14:07:19.498Z,1.30
2023-04-22T14:09:46.594Z,1.50
2023-04-22T14:12:13.928Z,1.30
2023-04-22T14:14:41.072Z,1.60
2023-04-22T14:17:08.500Z,1.60
2023-04-22T14:19:39.497Z,2.90
2023-04-22T14:22:06.897Z,8.40
2023-04-22T14:24:34.264Z,3.30
2023-04-22T14:27:04.169Z,1.50
2023-04-22T14:29:32.056Z,2.20
2023-04-22T14:31:59.611Z,3.10
2023-04-22T14:34:27.498Z,2.90
2023-04-22T14:36:54.838Z,1.60
2023-04-22T14:39:21.983Z,2.30
2023-04-22T14:41:49.615Z,1.40
2023-04-22T14:44:16.848Z,1.40
2023-04-22T14:46:43.913Z,1.50
2023-04-22T14:49:10.991Z,1.40
2023-04-22T14:51:38.137Z,1.90
2023-04-22T14:54:05.470Z,1.70
2023-04-22T14:56:32.617Z,2.10
2023-04-22T14:58:59.733Z,1.50
2023-04-22T15:01:27.102Z,1.30
2023-04-22T15:03:54.452Z,1.10
2023-04-22T15:06:22.758Z,1.20
2023-04-22T15:08:51.883Z,1.10
2023-04-22T15:11:19.133Z,2.00
2023-04-22T15:13:46.336Z,2.90
2023-04-22T15:16:13.651Z,1.50
2023-04-22T15:18:40.934Z,4.00
2023-04-22T15:21:10.663Z,2.50
2023-04-22T15:23:37.897Z,1.40
2023-04-22T15:26:05.362Z,8.70
2023-04-22T15:28:33.708Z,1.60
2023-04-22T15:31:01.377Z,3.80
2023-04-22T15:33:28.524Z,3.20
2023-04-22T15:35:55.726Z,2.10
2023-04-22T15:38:23.315Z,2.80
2023-04-22T15:40:50.616Z,1.30
2023-04-22T15:43:17.690Z,1.60
2023-04-22T15:45:44.855Z,1.50
2023-04-22T15:48:11.969Z,3.40
2023-04-22T15:50:40.849Z,5.00
2023-04-22T15:53:07.904Z,2.90
2023-04-22T15:55:35.005Z,1.80
2023-04-22T15:58:02.763Z,1.50
2023-04-22T16:00:29.893Z,1.50
2023-04-22T16:02:57.130Z,5.40
2023-04-22T16:05:25.205Z,22.10
2023-04-22T16:07:53.336Z,11.80
2023-04-22T16:10:21.333Z,26.00
2023-04-22T16:12:49.356Z,10.60
2023-04-22T16:15:17.808Z,5.90
2023-04-22T16:17:45.183Z,16.10
2023-04-22T16:20:12.401Z,5.10
2023-04-22T16:22:39.624Z,2.90
2023-04-22T16:25:07.751Z,4.80
2023-04-22T16:27:35.056Z,6.80
2023-04-22T16:30:02.130Z,7.40
2023-04-22T16:32:29.267Z,6.50
2023-04-22T16:34:56.345Z,5.30
2023-04-22T16:37:23.421Z,5.40
2023-04-22T16:39:51.482Z,8.30
2023-04-22T16:42:18.701Z,10.30
2023-04-22T16:44:45.895Z,24.70
2023-04-22T16:47:12.965Z,59.20
2023-04-22T16:49:40.258Z,72.30
2023-04-22T16:52:07.639Z,55.50
2023-04-22T16:54:34.814Z,73.10
2023-04-22T16:57:02.879Z,75.10
2023-04-22T16:59:30.025Z,49.60
2023-04-22T17:01:57.390Z,49.30
2023-04-22T17:04:24.744Z,47.90
2023-04-22T17:06:52.568Z,35.00
2023-04-22T17:09:19.692Z,27.60
2023-04-22T17:11:46.894Z,20.60
2023-04-22T17:14:14.295Z,15.60
2023-04-22T17:16:41.385Z,24.10
2023-04-22T17:19:08.518Z,21.00
2023-04-22T17:21:35.935Z,14.90
2023-04-22T17:24:04.747Z,10.60
2023-04-22T17:26:33.577Z,8.10
2023-04-22T17:29:00.950Z,5.90
2023-04-22T17:31:28.531Z,3.80
2023-04-22T17:33:55.809Z,5.30
2023-04-22T17:36:22.980Z,9.40
2023-04-22T17:38:50.264Z,18.80
2023-04-22T17:41:18.717Z,28.10
2023-04-22T17:43:45.901Z,26.50
2023-04-22T17:46:12.984Z,24.90
2023-04-22T17:48:41.156Z,29.60
2023-04-22T17:51:08.727Z,39.90
2023-04-22T17:53:37.493Z,45.70
2023-04-22T17:56:04.791Z,36.60
2023-04-22T17:58:31.945Z,32.00
2023-04-22T18:00:59.246Z,30.30
2023-04-22T18:03:26.631Z,54.80
2023-04-22T18:05:53.782Z,37.00
2023-04-22T18:08:20.890Z,26.30
2023-04-22T18:10:48.055Z,61.40
2023-04-22T18:13:15.690Z,102.00
2023-04-22T18:15:42.804Z,98.30
2023-04-22T18:18:10.099Z,79.90
2023-04-22T18:20:37.329Z,58.80
2023-04-22T18:23:04.557Z,50.40
2023-04-22T18:25:31.727Z,41.30
2023-04-22T18:27:58.901Z,33.10
2023-04-22T18:30:25.887Z,37.30
2023-04-22T18:32:53.276Z,56.20
2023-04-22T18:35:20.864Z,61.00
2023-04-22T18:37:48.004Z,64.90
2023-04-22T18:40:15.522Z,60.10
2023-04-22T18:42:44.980Z,56.50
2023-04-22T18:45:12.260Z,47.00
2023-04-22T18:47:39.557Z,46.40
2023-04-22T18:50:07.437Z,41.90
2023-04-22T18:52:34.835Z,40.40
2023-04-22T18:55:02.290Z,42.30
2023-04-22T18:57:29.430Z,68.10
2023-04-22T18:59:56.648Z,127.10
2023-04-22T19:02:23.951Z,123.90
2023-04-22T19:04:53.773Z,112.80
2023-04-22T19:07:21.117Z,105.80
2023-04-22T19:09:48.308Z,98.20
2023-04-22T19:12:16.746Z,95.80
2023-04-22T19:14:44.103Z,97.20
2023-04-22T19:17:11.488Z,110.70
2023-04-22T19:19:39.014Z,108.30
2023-04-22T19:22:06.367Z,105.90
2023-04-22T19:24:35.365Z,102.40
2023-04-22T19:27:03.545Z,83.90
2023-04-22T19:29:31.075Z,90.20
2023-04-22T19:31:59.024Z,97.50
2023-04-22T19:34:27.448Z,109.90
2023-04-22T19:36:54.936Z,102.80
2023-04-22T19:39:22.110Z,91.30
2023-04-22T19:41:49.397Z,80.20
2023-04-22T19:44:17.054Z,63.20
2023-04-22T19:46:44.165Z,45.10
2023-04-22T19:49:11.657Z,49.10
2023-04-22T19:51:41.157Z,50.30
2023-04-22T19:54:10.970Z,82.30
2023-04-22T19:56:39.054Z,87.50
2023-04-22T19:59:07.144Z,79.20
2023-04-22T20:01:35.468Z,90.20
2023-04-22T20:04:04.214Z,86.80
2023-04-22T20:06:33.822Z,134.40
2023-04-22T20:09:01.746Z,168.50
2023-04-22T20:11:29.646Z,113.40
2023-04-22T20:13:57.158Z,86.00
2023-04-22T20:16:25.221Z,81.80
2023-04-22T20:18:52.723Z,69.00
2023-04-22T20:21:20.168Z,71.00
2023-04-22T20:23:49.915Z,64.00
2023-04-22T20:26:20.305Z,59.80
2023-04-22T20:28:49.803Z,53.40
2023-04-22T20:31:22.525Z,50.20
2023-04-22T20:33:50.864Z,37.00
2023-04-22T20:36:20.031Z,35.70
2023-04-22T20:38:49.496Z,29.90
2023-04-22T20:41:19.020Z,29.30
2023-04-22T20:43:46.712Z,25.90
2023-04-22T20:46:14.039Z,24.90
2023-04-22T20:48:41.392Z,27.20
2023-04-22T20:51:08.522Z,26.60
2023-04-22T20:53:36.223Z,24.30
2023-04-22T20:56:03.673Z,23.20
2023-04-22T20:58:32.572Z,22.50
2023-04-22T21:00:59.906Z,22.10
2023-04-22T21:03:27.660Z,19.40
2023-04-22T21:05:56.477Z,18.10
2023-04-22T21:08:25.697Z,18.30
2023-04-22T21:10:54.731Z,17.80
2023-04-22T21:13:22.877Z,19.70
2023-04-22T21:16:02.700Z,25.80
2023-04-22T21:18:33.027Z,29.80
2023-04-22T21:21:04.099Z,35.10
2023-04-22T21:23:31.605Z,43.20
2023-04-22T21:26:01.547Z,39.10
2023-04-22T21:28:29.521Z,27.40
2023-04-22T21:30:57.061Z,23.20
2023-04-22T21:33:25.545Z,34.40
2023-04-22T21:35:53.118Z,30.40
2023-04-22T21:38:20.398Z,32.30
2023-04-22T21:40:47.828Z,27.20
2023-04-22T21:43:14.936Z,26.20
2023-04-22T21:45:42.142Z,32.00
2023-04-22T21:48:09.341Z,31.20
2023-04-22T21:50:36.757Z,26.20
2023-04-22T21:53:04.429Z,31.30
2023-04-22T21:55:32.045Z,32.70
2023-04-22T21:57:59.295Z,29.10
2023-04-22T22:00:26.433Z,21.50
2023-04-22T22:02:53.726Z,17.40
2023-04-22T22:05:21.072Z,15.30
2023-04-22T22:07:49.041Z,15.80
2023-04-22T22:10:19.408Z,15.60
2023-04-22T22:12:47.540Z,20.90
2023-04-22T22:15:18.742Z,21.10
2023-04-22T22:17:46.309Z,19.80
2023-04-22T22:20:16.786Z,16.00
2023-04-22T22:22:44.780Z,17.00
2023-04-22T22:25:14.632Z,16.00
2023-04-22T22:27:47.162Z,18.40
2023-04-22T22:30:21.976Z,14.40
2023-04-22T22:32:49.270Z,12.10
2023-04-22T22:35:16.751Z,12.60
2023-04-22T22:37:44.830Z,12.80
2023-04-22T22:40:12.566Z,12.10
2023-04-22T22:42:39.779Z,10.70
2023-04-22T22:45:07.642Z,9.70
2023-04-22T22:47:35.462Z,8.90
2023-04-22T22:50:02.607Z,8.80
2023-04-22T22:52:29.909Z,9.60
2023-04-22T22:54:57.089Z,9.50
2023-04-22T22:57:24.271Z,9.60
2023-04-22T22:59:51.416Z,10.70
2023-04-22T23:02:18.657Z,10.20
2023-04-22T23:04:46.330Z,9.90
2023-04-22T23:07:14.788Z,10.80
2023-04-22T23:09:42.079Z,11.00
2023-04-22T23:12:09.150Z,10.70
2023-04-22T23:14:36.734Z,10.70
2023-04-22T23:17:03.977Z,10.60
2023-04-22T23:19:31.678Z,10.40
2023-04-22T23:21:59.184Z,11.60
2023-04-22T23:24:26.741Z,11.30
2023-04-22T23:26:54.167Z,11.30
2023-04-22T23:29:21.800Z,10.60
2023-04-22T23:31:51.599Z,10.30
2023-04-22T23:34:22.744Z,12.90
2023-04-22T23:36:50.612Z,12.40
2023-04-22T23:39:17.760Z,76.10
2023-04-22T23:41:45.041Z,117.10
2023-04-22T23:44:12.136Z,101.40
2023-04-22T23:46:39.467Z,68.50
2023-04-22T23:49:07.381Z,56.50
2023-04-22T23:51:35.206Z,37.40
2023-04-22T23:54:02.342Z,37.20
2023-04-22T23:56:29.882Z,32.00
2023-04-22T23:58:57.471Z,25.60
